sensor_id;sensor_type;location;lat;lon;timestamp;P1;durP1;ratioP1;P2;durP2;ratioP2
21705;SDS011;11014;53.076;18.208;2023-09-18T00:01:34;21.30;;;15.48;;
21705;SDS011;11014;53.076;18.208;2023-09-18T00:04:03;18.88;;;14.95;;
21705;SDS011;11014;53.076;18.208;2023-09-18T00:06:32;19.95;;;14.75;;
21705;SDS011;11014;53.076;18.208;2023-09-18T00:09:01;19.95;;;15.18;;
21705;SDS011;11014;53.076;18.208;2023-09-18T00:11:30;21.92;;;15.00;;
21705;SDS011;11014;53.076;18.208;2023-09-18T00:13:58;22.27;;;16.15;;
21705;SDS011;11014;53.076;18.208;2023-09-18T00:16:27;23.58;;;15.80;;
21705;SDS011;11014;53.076;18.208;2023-09-18T00:19:00;22.98;;;15.13;;
21705;SDS011;11014;53.076;18.208;2023-09-18T00:21:31;18.98;;;15.07;;
21705;SDS011;11014;53.076;18.208;2023-09-18T00:24:00;21.92;;;15.07;;
21705;SDS011;11014;53.076;18.208;2023-09-18T00:26:28;20.85;;;15.63;;
21705;SDS011;11014;53.076;18.208;2023-09-18T00:28:58;22.67;;;15.98;;
21705;SDS011;11014;53.076;18.208;2023-09-18T00:31:26;20.23;;;15.52;;
21705;SDS011;11014;53.076;18.208;2023-09-18T00:33:55;21.42;;;15.20;;
21705;SDS011;11014;53.076;18.208;2023-09-18T00:36:24;17.77;;;15.10;;
21705;SDS011;11014;53.076;18.208;2023-09-18T00:38:52;26.42;;;15.13;;
21705;SDS011;11014;53.076;18.208;2023-09-18T00:41:21;22.17;;;15.00;;
21705;SDS011;11014;53.076;18.208;2023-09-18T00:43:52;24.58;;;15.15;;
21705;SDS011;11014;53.076;18.208;2023-09-18T00:46:21;22.90;;;15.10;;
21705;SDS011;11014;53.076;18.208;2023-09-18T00:48:50;26.55;;;15.32;;
21705;SDS011;11014;53.076;18.208;2023-09-18T00:51:20;31.73;;;14.63;;
21705;SDS011;11014;53.076;18.208;2023-09-18T00:53:48;22.20;;;15.07;;
21705;SDS011;11014;53.076;18.208;2023-09-18T00:56:18;24.58;;;14.30;;
21705;SDS011;11014;53.076;18.208;2023-09-18T00:58:50;23.60;;;14.38;;
21705;SDS011;11014;53.076;18.208;2023-09-18T01:01:21;19.75;;;14.20;;
21705;SDS011;11014;53.076;18.208;2023-09-18T01:03:51;19.55;;;14.45;;
21705;SDS011;11014;53.076;18.208;2023-09-18T01:06:24;21.23;;;15.13;;
21705;SDS011;11014;53.076;18.208;2023-09-18T01:08:56;19.05;;;15.25;;
21705;SDS011;11014;53.076;18.208;2023-09-18T01:11:40;21.58;;;14.40;;
21705;SDS011;11014;53.076;18.208;2023-09-18T01:14:25;20.65;;;15.15;;
21705;SDS011;11014;53.076;18.208;2023-09-18T01:16:57;18.20;;;15.20;;
21705;SDS011;11014;53.076;18.208;2023-09-18T01:19:36;19.88;;;15.07;;
21705;SDS011;11014;53.076;18.208;2023-09-18T01:22:16;20.80;;;15.27;;
21705;SDS011;11014;53.076;18.208;2023-09-18T01:24:46;22.58;;;15.07;;
21705;SDS011;11014;53.076;18.208;2023-09-18T01:27:16;20.55;;;15.77;;
21705;SDS011;11014;53.076;18.208;2023-09-18T01:29:46;21.35;;;14.60;;
21705;SDS011;11014;53.076;18.208;2023-09-18T01:32:16;20.13;;;15.15;;
21705;SDS011;11014;53.076;18.208;2023-09-18T01:34:48;20.15;;;15.57;;
21705;SDS011;11014;53.076;18.208;2023-09-18T01:37:21;21.88;;;15.95;;
21705;SDS011;11014;53.076;18.208;2023-09-18T01:42:21;20.25;;;15.07;;
21705;SDS011;11014;53.076;18.208;2023-09-18T01:44:51;19.15;;;14.88;;
21705;SDS011;11014;53.076;18.208;2023-09-18T01:47:22;21.42;;;14.63;;
21705;SDS011;11014;53.076;18.208;2023-09-18T01:49:51;20.35;;;15.20;;
21705;SDS011;11014;53.076;18.208;2023-09-18T01:52:20;21.88;;;14.57;;
21705;SDS011;11014;53.076;18.208;2023-09-18T01:54:49;18.27;;;14.98;;
21705;SDS011;11014;53.076;18.208;2023-09-18T01:57:17;21.13;;;15.48;;
21705;SDS011;11014;53.076;18.208;2023-09-18T01:59:46;20.52;;;15.98;;
21705;SDS011;11014;53.076;18.208;2023-09-18T02:02:15;22.55;;;16.50;;
21705;SDS011;11014;53.076;18.208;2023-09-18T02:04:55;19.40;;;15.48;;
21705;SDS011;11014;53.076;18.208;2023-09-18T02:07:35;18.73;;;14.98;;
21705;SDS011;11014;53.076;18.208;2023-09-18T02:10:03;21.33;;;15.60;;
21705;SDS011;11014;53.076;18.208;2023-09-18T02:12:33;20.25;;;15.60;;
21705;SDS011;11014;53.076;18.208;2023-09-18T02:15:02;17.45;;;14.00;;
21705;SDS011;11014;53.076;18.208;2023-09-18T02:17:34;18.73;;;15.15;;
21705;SDS011;11014;53.076;18.208;2023-09-18T02:20:03;18.83;;;14.63;;
21705;SDS011;11014;53.076;18.208;2023-09-18T02:22:40;21.70;;;15.65;;
21705;SDS011;11014;53.076;18.208;2023-09-18T02:25:08;20.15;;;14.82;;
21705;SDS011;11014;53.076;18.208;2023-09-18T02:27:37;20.70;;;15.05;;
21705;SDS011;11014;53.076;18.208;2023-09-18T02:30:06;21.13;;;14.80;;
21705;SDS011;11014;53.076;18.208;2023-09-18T02:32:37;20.08;;;14.60;;
21705;SDS011;11014;53.076;18.208;2023-09-18T02:35:05;21.60;;;15.75;;
21705;SDS011;11014;53.076;18.208;2023-09-18T02:37:35;18.67;;;15.40;;
21705;SDS011;11014;53.076;18.208;2023-09-18T02:40:04;18.15;;;15.02;;
21705;SDS011;11014;53.076;18.208;2023-09-18T02:42:33;23.38;;;17.73;;
21705;SDS011;11014;53.076;18.208;2023-09-18T02:45:02;22.75;;;18.17;;
21705;SDS011;11014;53.076;18.208;2023-09-18T02:47:31;21.88;;;17.42;;
21705;SDS011;11014;53.076;18.208;2023-09-18T02:50:00;24.38;;;18.05;;
21705;SDS011;11014;53.076;18.208;2023-09-18T02:52:29;21.40;;;16.73;;
21705;SDS011;11014;53.076;18.208;2023-09-18T02:54:57;21.05;;;15.70;;
21705;SDS011;11014;53.076;18.208;2023-09-18T02:57:26;22.25;;;16.75;;
21705;SDS011;11014;53.076;18.208;2023-09-18T02:59:54;22.77;;;15.23;;
21705;SDS011;11014;53.076;18.208;2023-09-18T03:02:23;21.67;;;15.52;;
21705;SDS011;11014;53.076;18.208;2023-09-18T03:04:52;23.70;;;15.95;;
21705;SDS011;11014;53.076;18.208;2023-09-18T03:07:21;22.55;;;15.52;;
21705;SDS011;11014;53.076;18.208;2023-09-18T03:09:50;21.42;;;16.38;;
21705;SDS011;11014;53.076;18.208;2023-09-18T03:12:20;22.63;;;16.38;;
21705;SDS011;11014;53.076;18.208;2023-09-18T03:14:50;23.13;;;16.48;;
21705;SDS011;11014;53.076;18.208;2023-09-18T03:17:19;20.27;;;15.68;;
21705;SDS011;11014;53.076;18.208;2023-09-18T03:19:48;19.35;;;15.68;;
21705;SDS011;11014;53.076;18.208;2023-09-18T03:22:17;19.20;;;15.23;;
21705;SDS011;11014;53.076;18.208;2023-09-18T03:24:48;20.63;;;15.38;;
21705;SDS011;11014;53.076;18.208;2023-09-18T03:27:17;19.95;;;16.00;;
21705;SDS011;11014;53.076;18.208;2023-09-18T03:29:45;22.10;;;15.98;;
21705;SDS011;11014;53.076;18.208;2023-09-18T03:32:14;26.73;;;17.15;;
21705;SDS011;11014;53.076;18.208;2023-09-18T03:34:43;24.17;;;16.23;;
21705;SDS011;11014;53.076;18.208;2023-09-18T03:37:12;23.08;;;17.35;;
21705;SDS011;11014;53.076;18.208;2023-09-18T03:39:40;26.58;;;17.30;;
21705;SDS011;11014;53.076;18.208;2023-09-18T03:42:09;29.38;;;16.80;;
21705;SDS011;11014;53.076;18.208;2023-09-18T03:44:37;27.92;;;17.30;;
21705;SDS011;11014;53.076;18.208;2023-09-18T03:47:06;25.58;;;17.55;;
21705;SDS011;11014;53.076;18.208;2023-09-18T03:49:35;24.20;;;17.10;;
21705;SDS011;11014;53.076;18.208;2023-09-18T03:52:04;27.13;;;17.55;;
21705;SDS011;11014;53.076;18.208;2023-09-18T03:54:33;25.50;;;16.95;;
21705;SDS011;11014;53.076;18.208;2023-09-18T03:57:02;22.95;;;16.27;;
21705;SDS011;11014;53.076;18.208;2023-09-18T03:59:31;28.35;;;16.23;;
21705;SDS011;11014;53.076;18.208;2023-09-18T04:01:59;21.42;;;16.38;;
21705;SDS011;11014;53.076;18.208;2023-09-18T04:04:28;25.10;;;16.55;;
21705;SDS011;11014;53.076;18.208;2023-09-18T04:06:57;26.08;;;16.75;;
21705;SDS011;11014;53.076;18.208;2023-09-18T04:09:25;28.83;;;17.48;;
21705;SDS011;11014;53.076;18.208;2023-09-18T04:11:54;26.10;;;17.83;;
21705;SDS011;11014;53.076;18.208;2023-09-18T04:14:24;27.52;;;17.60;;
21705;SDS011;11014;53.076;18.208;2023-09-18T04:16:55;24.95;;;18.58;;
21705;SDS011;11014;53.076;18.208;2023-09-18T04:19:27;29.42;;;18.10;;
21705;SDS011;11014;53.076;18.208;2023-09-18T04:21:56;25.65;;;16.95;;
21705;SDS011;11014;53.076;18.208;2023-09-18T04:24:25;29.00;;;18.15;;
21705;SDS011;11014;53.076;18.208;2023-09-18T04:26:55;29.88;;;17.85;;
21705;SDS011;11014;53.076;18.208;2023-09-18T04:29:23;39.15;;;19.08;;
21705;SDS011;11014;53.076;18.208;2023-09-18T04:31:55;42.20;;;19.02;;
21705;SDS011;11014;53.076;18.208;2023-09-18T04:34:24;30.80;;;18.58;;
21705;SDS011;11014;53.076;18.208;2023-09-18T04:36:53;33.83;;;19.05;;
21705;SDS011;11014;53.076;18.208;2023-09-18T04:39:21;29.75;;;17.77;;
21705;SDS011;11014;53.076;18.208;2023-09-18T04:41:50;32.20;;;18.80;;
21705;SDS011;11014;53.076;18.208;2023-09-18T04:44:19;48.70;;;19.38;;
21705;SDS011;11014;53.076;18.208;2023-09-18T04:46:48;38.15;;;19.23;;
21705;SDS011;11014;53.076;18.208;2023-09-18T04:49:16;35.42;;;18.75;;
21705;SDS011;11014;53.076;18.208;2023-09-18T04:51:46;44.17;;;19.52;;
21705;SDS011;11014;53.076;18.208;2023-09-18T04:54:14;51.50;;;19.83;;
21705;SDS011;11014;53.076;18.208;2023-09-18T04:56:43;42.35;;;19.35;;
21705;SDS011;11014;53.076;18.208;2023-09-18T04:59:12;39.38;;;19.33;;
21705;SDS011;11014;53.076;18.208;2023-09-18T05:01:41;40.15;;;20.70;;
21705;SDS011;11014;53.076;18.208;2023-09-18T05:04:10;52.58;;;20.85;;
21705;SDS011;11014;53.076;18.208;2023-09-18T05:06:40;40.58;;;19.92;;
21705;SDS011;11014;53.076;18.208;2023-09-18T05:09:09;44.60;;;19.58;;
21705;SDS011;11014;53.076;18.208;2023-09-18T05:11:38;39.17;;;19.77;;
21705;SDS011;11014;53.076;18.208;2023-09-18T05:14:10;40.40;;;19.08;;
21705;SDS011;11014;53.076;18.208;2023-09-18T05:16:40;36.05;;;20.30;;
21705;SDS011;11014;53.076;18.208;2023-09-18T05:19:09;106.25;;;24.38;;
21705;SDS011;11014;53.076;18.208;2023-09-18T05:21:38;60.85;;;21.23;;
21705;SDS011;11014;53.076;18.208;2023-09-18T05:24:06;46.25;;;20.08;;
21705;SDS011;11014;53.076;18.208;2023-09-18T05:26:35;53.85;;;22.08;;
21705;SDS011;11014;53.076;18.208;2023-09-18T05:29:04;52.30;;;21.00;;
21705;SDS011;11014;53.076;18.208;2023-09-18T05:31:34;50.88;;;21.88;;
21705;SDS011;11014;53.076;18.208;2023-09-18T05:34:02;40.15;;;21.27;;
21705;SDS011;11014;53.076;18.208;2023-09-18T05:36:32;46.30;;;22.27;;
21705;SDS011;11014;53.076;18.208;2023-09-18T05:39:05;50.15;;;24.92;;
21705;SDS011;11014;53.076;18.208;2023-09-18T05:41:40;39.60;;;26.23;;
21705;SDS011;11014;53.076;18.208;2023-09-18T05:44:09;38.40;;;25.48;;
21705;SDS011;11014;53.076;18.208;2023-09-18T05:46:39;38.50;;;26.88;;
21705;SDS011;11014;53.076;18.208;2023-09-18T05:49:08;41.35;;;27.92;;
21705;SDS011;11014;53.076;18.208;2023-09-18T05:51:40;37.05;;;26.55;;
21705;SDS011;11014;53.076;18.208;2023-09-18T05:54:09;35.42;;;25.35;;
21705;SDS011;11014;53.076;18.208;2023-09-18T05:56:38;34.50;;;24.73;;
21705;SDS011;11014;53.076;18.208;2023-09-18T05:59:07;39.65;;;24.73;;
21705;SDS011;11014;53.076;18.208;2023-09-18T06:01:35;39.35;;;24.88;;
21705;SDS011;11014;53.076;18.208;2023-09-18T06:04:06;36.72;;;23.90;;
21705;SDS011;11014;53.076;18.208;2023-09-18T06:06:35;33.83;;;22.88;;
21705;SDS011;11014;53.076;18.208;2023-09-18T06:09:03;39.03;;;23.80;;
21705;SDS011;11014;53.076;18.208;2023-09-18T06:11:33;32.50;;;23.95;;
21705;SDS011;11014;53.076;18.208;2023-09-18T06:14:02;36.20;;;24.05;;
21705;SDS011;11014;53.076;18.208;2023-09-18T06:16:30;40.88;;;24.52;;
21705;SDS011;11014;53.076;18.208;2023-09-18T06:18:59;33.75;;;24.40;;
21705;SDS011;11014;53.076;18.208;2023-09-18T06:21:28;34.85;;;24.80;;
21705;SDS011;11014;53.076;18.208;2023-09-18T06:23:58;33.97;;;23.08;;
21705;SDS011;11014;53.076;18.208;2023-09-18T06:26:26;31.35;;;23.45;;
21705;SDS011;11014;53.076;18.208;2023-09-18T06:28:55;33.95;;;23.38;;
21705;SDS011;11014;53.076;18.208;2023-09-18T06:31:24;31.35;;;23.95;;
21705;SDS011;11014;53.076;18.208;2023-09-18T06:33:54;34.35;;;23.92;;
21705;SDS011;11014;53.076;18.208;2023-09-18T06:36:23;33.30;;;23.70;;
21705;SDS011;11014;53.076;18.208;2023-09-18T06:38:51;29.77;;;22.48;;
21705;SDS011;11014;53.076;18.208;2023-09-18T06:41:20;27.73;;;21.92;;
21705;SDS011;11014;53.076;18.208;2023-09-18T06:43:49;28.40;;;20.77;;
21705;SDS011;11014;53.076;18.208;2023-09-18T06:46:18;23.30;;;20.52;;
21705;SDS011;11014;53.076;18.208;2023-09-18T06:48:49;28.30;;;20.38;;
21705;SDS011;11014;53.076;18.208;2023-09-18T06:51:20;25.48;;;18.45;;
21705;SDS011;11014;53.076;18.208;2023-09-18T06:54:09;24.48;;;19.40;;
21705;SDS011;11014;53.076;18.208;2023-09-18T06:56:38;25.90;;;19.70;;
21705;SDS011;11014;53.076;18.208;2023-09-18T06:59:06;40.15;;;18.83;;
21705;SDS011;11014;53.076;18.208;2023-09-18T07:01:35;26.52;;;18.58;;
21705;SDS011;11014;53.076;18.208;2023-09-18T07:04:05;22.05;;;17.15;;
21705;SDS011;11014;53.076;18.208;2023-09-18T07:06:34;18.45;;;16.00;;
21705;SDS011;11014;53.076;18.208;2023-09-18T07:09:04;22.33;;;15.68;;
21705;SDS011;11014;53.076;18.208;2023-09-18T07:11:35;19.27;;;14.43;;
21705;SDS011;11014;53.076;18.208;2023-09-18T07:14:04;16.63;;;14.25;;
21705;SDS011;11014;53.076;18.208;2023-09-18T07:16:35;16.43;;;14.67;;
21705;SDS011;11014;53.076;18.208;2023-09-18T07:19:03;16.35;;;14.35;;
21705;SDS011;11014;53.076;18.208;2023-09-18T07:21:33;20.75;;;14.18;;
21705;SDS011;11014;53.076;18.208;2023-09-18T07:24:03;15.63;;;14.00;;
21705;SDS011;11014;53.076;18.208;2023-09-18T07:26:32;16.02;;;14.25;;
21705;SDS011;11014;53.076;18.208;2023-09-18T07:29:00;28.52;;;13.70;;
21705;SDS011;11014;53.076;18.208;2023-09-18T07:31:30;19.85;;;12.63;;
21705;SDS011;11014;53.076;18.208;2023-09-18T07:33:58;17.95;;;12.95;;
21705;SDS011;11014;53.076;18.208;2023-09-18T07:36:29;16.42;;;12.60;;
21705;SDS011;11014;53.076;18.208;2023-09-18T07:38:57;13.38;;;11.68;;
21705;SDS011;11014;53.076;18.208;2023-09-18T07:41:26;15.77;;;11.57;;
21705;SDS011;11014;53.076;18.208;2023-09-18T07:43:55;17.15;;;10.75;;
21705;SDS011;11014;53.076;18.208;2023-09-18T07:46:25;11.23;;;10.13;;
21705;SDS011;11014;53.076;18.208;2023-09-18T07:48:54;13.48;;;9.80;;
21705;SDS011;11014;53.076;18.208;2023-09-18T07:51:23;20.20;;;10.00;;
21705;SDS011;11014;53.076;18.208;2023-09-18T07:53:51;10.82;;;9.73;;
21705;SDS011;11014;53.076;18.208;2023-09-18T07:56:20;10.40;;;9.30;;
21705;SDS011;11014;53.076;18.208;2023-09-18T07:58:49;18.83;;;10.10;;
21705;SDS011;11014;53.076;18.208;2023-09-18T08:01:18;20.17;;;9.98;;
21705;SDS011;11014;53.076;18.208;2023-09-18T08:03:50;13.88;;;9.00;;
21705;SDS011;11014;53.076;18.208;2023-09-18T08:06:19;10.05;;;9.05;;
21705;SDS011;11014;53.076;18.208;2023-09-18T08:08:47;11.30;;;9.10;;
21705;SDS011;11014;53.076;18.208;2023-09-18T08:11:16;11.10;;;9.38;;
21705;SDS011;11014;53.076;18.208;2023-09-18T08:13:45;37.33;;;10.82;;
21705;SDS011;11014;53.076;18.208;2023-09-18T08:16:14;11.90;;;9.07;;
21705;SDS011;11014;53.076;18.208;2023-09-18T08:18:42;13.80;;;9.50;;
21705;SDS011;11014;53.076;18.208;2023-09-18T08:21:11;9.60;;;8.60;;
21705;SDS011;11014;53.076;18.208;2023-09-18T08:23:43;11.63;;;9.13;;
21705;SDS011;11014;53.076;18.208;2023-09-18T08:26:12;9.60;;;8.60;;
21705;SDS011;11014;53.076;18.208;2023-09-18T08:28:40;14.13;;;8.00;;
21705;SDS011;11014;53.076;18.208;2023-09-18T08:31:12;9.48;;;7.75;;
21705;SDS011;11014;53.076;18.208;2023-09-18T08:33:43;15.00;;;8.13;;
21705;SDS011;11014;53.076;18.208;2023-09-18T08:36:11;10.93;;;7.93;;
21705;SDS011;11014;53.076;18.208;2023-09-18T08:38:40;13.25;;;8.00;;
21705;SDS011;11014;53.076;18.208;2023-09-18T08:41:11;16.90;;;7.60;;
21705;SDS011;11014;53.076;18.208;2023-09-18T08:43:42;14.45;;;7.38;;
21705;SDS011;11014;53.076;18.208;2023-09-18T08:46:12;11.38;;;7.57;;
21705;SDS011;11014;53.076;18.208;2023-09-18T08:48:41;11.15;;;7.30;;
21705;SDS011;11014;53.076;18.208;2023-09-18T08:51:10;16.20;;;7.53;;
21705;SDS011;11014;53.076;18.208;2023-09-18T08:53:40;8.57;;;7.22;;
21705;SDS011;11014;53.076;18.208;2023-09-18T08:56:09;19.20;;;7.72;;
21705;SDS011;11014;53.076;18.208;2023-09-18T08:58:40;16.27;;;7.65;;
21705;SDS011;11014;53.076;18.208;2023-09-18T09:01:11;32.22;;;8.25;;
21705;SDS011;11014;53.076;18.208;2023-09-18T09:03:40;7.85;;;7.03;;
21705;SDS011;11014;53.076;18.208;2023-09-18T09:06:11;7.88;;;6.43;;
21705;SDS011;11014;53.076;18.208;2023-09-18T09:08:40;36.80;;;8.73;;
21705;SDS011;11014;53.076;18.208;2023-09-18T09:11:09;11.10;;;6.47;;
21705;SDS011;11014;53.076;18.208;2023-09-18T09:13:38;9.93;;;6.63;;
21705;SDS011;11014;53.076;18.208;2023-09-18T09:16:13;6.85;;;6.15;;
21705;SDS011;11014;53.076;18.208;2023-09-18T09:18:47;10.27;;;6.40;;
21705;SDS011;11014;53.076;18.208;2023-09-18T09:21:18;6.65;;;5.95;;
21705;SDS011;11014;53.076;18.208;2023-09-18T09:23:50;9.23;;;5.95;;
21705;SDS011;11014;53.076;18.208;2023-09-18T09:26:22;11.30;;;6.65;;
21705;SDS011;11014;53.076;18.208;2023-09-18T09:28:52;11.98;;;6.38;;
21705;SDS011;11014;53.076;18.208;2023-09-18T09:33:56;11.50;;;5.78;;
21705;SDS011;11014;53.076;18.208;2023-09-18T09:36:26;6.35;;;5.65;;
21705;SDS011;11014;53.076;18.208;2023-09-18T09:38:54;6.40;;;5.80;;
21705;SDS011;11014;53.076;18.208;2023-09-18T09:41:28;8.02;;;5.85;;
21705;SDS011;11014;53.076;18.208;2023-09-18T09:43:57;6.78;;;6.03;;
21705;SDS011;11014;53.076;18.208;2023-09-18T09:46:27;10.27;;;5.57;;
21705;SDS011;11014;53.076;18.208;2023-09-18T09:51:29;10.82;;;6.22;;
21705;SDS011;11014;53.076;18.208;2023-09-18T09:53:58;10.10;;;5.70;;
21705;SDS011;11014;53.076;18.208;2023-09-18T09:56:42;6.70;;;5.73;;
21705;SDS011;11014;53.076;18.208;2023-09-18T09:59:14;7.10;;;6.18;;
21705;SDS011;11014;53.076;18.208;2023-09-18T10:01:47;8.68;;;6.57;;
21705;SDS011;11014;53.076;18.208;2023-09-18T10:04:18;7.40;;;6.18;;
21705;SDS011;11014;53.076;18.208;2023-09-18T10:06:52;7.05;;;5.75;;
21705;SDS011;11014;53.076;18.208;2023-09-18T10:09:24;8.40;;;6.43;;
21705;SDS011;11014;53.076;18.208;2023-09-18T10:11:57;10.13;;;6.38;;
21705;SDS011;11014;53.076;18.208;2023-09-18T10:14:31;25.88;;;8.15;;
21705;SDS011;11014;53.076;18.208;2023-09-18T10:17:22;26.33;;;7.68;;
21705;SDS011;11014;53.076;18.208;2023-09-18T10:20:09;17.40;;;6.63;;
21705;SDS011;11014;53.076;18.208;2023-09-18T10:22:52;9.80;;;7.20;;
21705;SDS011;11014;53.076;18.208;2023-09-18T10:25:24;10.38;;;7.30;;
21705;SDS011;11014;53.076;18.208;2023-09-18T10:27:57;9.90;;;7.25;;
21705;SDS011;11014;53.076;18.208;2023-09-18T10:30:29;24.23;;;7.93;;
21705;SDS011;11014;53.076;18.208;2023-09-18T10:33:02;33.53;;;9.65;;
21705;SDS011;11014;53.076;18.208;2023-09-18T10:35:31;13.27;;;7.43;;
21705;SDS011;11014;53.076;18.208;2023-09-18T10:38:00;9.68;;;7.57;;
21705;SDS011;11014;53.076;18.208;2023-09-18T10:40:30;12.20;;;7.90;;
21705;SDS011;11014;53.076;18.208;2023-09-18T10:43:02;13.80;;;7.88;;
21705;SDS011;11014;53.076;18.208;2023-09-18T10:45:33;9.20;;;8.27;;
21705;SDS011;11014;53.076;18.208;2023-09-18T10:48:02;15.43;;;9.55;;
21705;SDS011;11014;53.076;18.208;2023-09-18T10:50:31;11.25;;;9.27;;
21705;SDS011;11014;53.076;18.208;2023-09-18T10:53:00;11.07;;;9.43;;
21705;SDS011;11014;53.076;18.208;2023-09-18T10:55:28;15.95;;;9.75;;
21705;SDS011;11014;53.076;18.208;2023-09-18T10:57:58;10.27;;;9.18;;
21705;SDS011;11014;53.076;18.208;2023-09-18T11:00:31;17.98;;;10.27;;
21705;SDS011;11014;53.076;18.208;2023-09-18T11:03:12;20.73;;;9.82;;
21705;SDS011;11014;53.076;18.208;2023-09-18T11:05:46;41.92;;;12.50;;
21705;SDS011;11014;53.076;18.208;2023-09-18T11:11:19;15.35;;;10.13;;
21705;SDS011;11014;53.076;18.208;2023-09-18T11:13:52;13.35;;;9.88;;
21705;SDS011;11014;53.076;18.208;2023-09-18T11:21:33;11.85;;;10.07;;
21705;SDS011;11014;53.076;18.208;2023-09-18T11:24:16;15.30;;;9.88;;
21705;SDS011;11014;53.076;18.208;2023-09-18T11:26:49;11.55;;;9.48;;
21705;SDS011;11014;53.076;18.208;2023-09-18T11:29:23;13.77;;;9.15;;
21705;SDS011;11014;53.076;18.208;2023-09-18T11:31:56;14.25;;;9.68;;
21705;SDS011;11014;53.076;18.208;2023-09-18T11:34:33;11.80;;;8.98;;
21705;SDS011;11014;53.076;18.208;2023-09-18T11:37:20;10.45;;;9.35;;
21705;SDS011;11014;53.076;18.208;2023-09-18T11:39:50;15.70;;;9.13;;
21705;SDS011;11014;53.076;18.208;2023-09-18T11:42:19;13.65;;;8.65;;
21705;SDS011;11014;53.076;18.208;2023-09-18T11:44:57;7.70;;;7.00;;
21705;SDS011;11014;53.076;18.208;2023-09-18T11:47:27;8.45;;;6.85;;
21705;SDS011;11014;53.076;18.208;2023-09-18T11:49:58;9.63;;;5.95;;
21705;SDS011;11014;53.076;18.208;2023-09-18T11:52:29;9.20;;;6.55;;
21705;SDS011;11014;53.076;18.208;2023-09-18T11:54:59;7.22;;;5.80;;
21705;SDS011;11014;53.076;18.208;2023-09-18T11:57:34;9.05;;;6.05;;
21705;SDS011;11014;53.076;18.208;2023-09-18T12:00:04;6.32;;;5.60;;
21705;SDS011;11014;53.076;18.208;2023-09-18T12:02:40;20.02;;;5.97;;
21705;SDS011;11014;53.076;18.208;2023-09-18T12:05:16;5.22;;;4.72;;
21705;SDS011;11014;53.076;18.208;2023-09-18T12:07:49;14.48;;;5.15;;
21705;SDS011;11014;53.076;18.208;2023-09-18T12:10:20;11.02;;;5.38;;
21705;SDS011;11014;53.076;18.208;2023-09-18T12:12:49;7.05;;;5.30;;
21705;SDS011;11014;53.076;18.208;2023-09-18T12:15:18;13.43;;;5.45;;
21705;SDS011;11014;53.076;18.208;2023-09-18T12:17:55;7.25;;;5.20;;
21705;SDS011;11014;53.076;18.208;2023-09-18T12:20:24;9.80;;;5.60;;
21705;SDS011;11014;53.076;18.208;2023-09-18T12:22:52;8.55;;;5.32;;
21705;SDS011;11014;53.076;18.208;2023-09-18T12:25:21;10.77;;;5.55;;
21705;SDS011;11014;53.076;18.208;2023-09-18T12:27:55;5.80;;;4.80;;
21705;SDS011;11014;53.076;18.208;2023-09-18T12:30:24;7.18;;;5.03;;
21705;SDS011;11014;53.076;18.208;2023-09-18T12:32:54;8.13;;;5.47;;
21705;SDS011;11014;53.076;18.208;2023-09-18T12:35:28;6.15;;;5.30;;
21705;SDS011;11014;53.076;18.208;2023-09-18T12:38:01;22.70;;;6.43;;
21705;SDS011;11014;53.076;18.208;2023-09-18T12:40:33;9.70;;;5.38;;
21705;SDS011;11014;53.076;18.208;2023-09-18T12:43:01;9.65;;;5.55;;
21705;SDS011;11014;53.076;18.208;2023-09-18T12:45:31;7.45;;;5.68;;
21705;SDS011;11014;53.076;18.208;2023-09-18T12:48:00;15.43;;;6.53;;
21705;SDS011;11014;53.076;18.208;2023-09-18T12:50:30;6.03;;;5.43;;
21705;SDS011;11014;53.076;18.208;2023-09-18T12:53:06;8.15;;;5.72;;
21705;SDS011;11014;53.076;18.208;2023-09-18T12:55:42;6.75;;;6.15;;
21705;SDS011;11014;53.076;18.208;2023-09-18T12:58:11;8.30;;;6.40;;
21705;SDS011;11014;53.076;18.208;2023-09-18T13:00:46;6.45;;;5.80;;
21705;SDS011;11014;53.076;18.208;2023-09-18T13:03:17;6.60;;;5.22;;
21705;SDS011;11014;53.076;18.208;2023-09-18T13:05:48;27.67;;;7.45;;
21705;SDS011;11014;53.076;18.208;2023-09-18T13:08:20;7.95;;;5.47;;
21705;SDS011;11014;53.076;18.208;2023-09-18T13:10:50;12.85;;;5.88;;
21705;SDS011;11014;53.076;18.208;2023-09-18T13:13:20;16.08;;;6.53;;
21705;SDS011;11014;53.076;18.208;2023-09-18T13:15:50;27.83;;;7.57;;
21705;SDS011;11014;53.076;18.208;2023-09-18T13:18:23;7.60;;;6.28;;
21705;SDS011;11014;53.076;18.208;2023-09-18T13:20:53;6.57;;;5.90;;
21705;SDS011;11014;53.076;18.208;2023-09-18T13:23:29;8.85;;;5.70;;
21705;SDS011;11014;53.076;18.208;2023-09-18T13:26:03;6.60;;;6.00;;
21705;SDS011;11014;53.076;18.208;2023-09-18T13:28:37;7.53;;;5.70;;
21705;SDS011;11014;53.076;18.208;2023-09-18T13:31:13;6.70;;;5.90;;
21705;SDS011;11014;53.076;18.208;2023-09-18T13:33:42;7.47;;;6.10;;
21705;SDS011;11014;53.076;18.208;2023-09-18T13:38:47;8.63;;;6.25;;
21705;SDS011;11014;53.076;18.208;2023-09-18T13:41:31;7.07;;;6.38;;
21705;SDS011;11014;53.076;18.208;2023-09-18T13:44:10;8.40;;;6.20;;
21705;SDS011;11014;53.076;18.208;2023-09-18T13:46:48;13.25;;;6.53;;
21705;SDS011;11014;53.076;18.208;2023-09-18T13:49:21;20.52;;;7.53;;
21705;SDS011;11014;53.076;18.208;2023-09-18T13:52:00;15.68;;;7.25;;
21705;SDS011;11014;53.076;18.208;2023-09-18T13:54:29;14.23;;;7.13;;
21705;SDS011;11014;53.076;18.208;2023-09-18T13:56:58;9.23;;;7.07;;
21705;SDS011;11014;53.076;18.208;2023-09-18T13:59:36;16.85;;;7.47;;
21705;SDS011;11014;53.076;18.208;2023-09-18T14:02:09;28.63;;;8.65;;
21705;SDS011;11014;53.076;18.208;2023-09-18T14:04:39;21.67;;;8.75;;
21705;SDS011;11014;53.076;18.208;2023-09-18T14:07:08;11.95;;;7.50;;
21705;SDS011;11014;53.076;18.208;2023-09-18T14:09:42;13.52;;;8.05;;
21705;SDS011;11014;53.076;18.208;2023-09-18T14:12:43;10.65;;;7.80;;
21705;SDS011;11014;53.076;18.208;2023-09-18T14:15:12;13.02;;;8.57;;
21705;SDS011;11014;53.076;18.208;2023-09-18T14:17:41;24.73;;;9.07;;
21705;SDS011;11014;53.076;18.208;2023-09-18T14:20:10;10.88;;;8.00;;
21705;SDS011;11014;53.076;18.208;2023-09-18T14:22:38;9.07;;;8.13;;
21705;SDS011;11014;53.076;18.208;2023-09-18T14:25:07;9.18;;;8.27;;
21705;SDS011;11014;53.076;18.208;2023-09-18T14:27:36;9.35;;;8.55;;
21705;SDS011;11014;53.076;18.208;2023-09-18T14:30:05;12.15;;;7.68;;
21705;SDS011;11014;53.076;18.208;2023-09-18T14:32:35;11.13;;;8.52;;
21705;SDS011;11014;53.076;18.208;2023-09-18T14:35:05;10.60;;;8.98;;
21705;SDS011;11014;53.076;18.208;2023-09-18T14:37:36;21.95;;;9.68;;
21705;SDS011;11014;53.076;18.208;2023-09-18T14:40:06;13.60;;;7.90;;
21705;SDS011;11014;53.076;18.208;2023-09-18T14:42:40;21.88;;;9.52;;
21705;SDS011;11014;53.076;18.208;2023-09-18T14:45:09;40.83;;;12.10;;
21705;SDS011;11014;53.076;18.208;2023-09-18T14:47:41;10.70;;;7.93;;
21705;SDS011;11014;53.076;18.208;2023-09-18T14:50:10;15.75;;;9.50;;
21705;SDS011;11014;53.076;18.208;2023-09-18T14:52:38;12.45;;;9.20;;
21705;SDS011;11014;53.076;18.208;2023-09-18T14:55:07;9.57;;;8.77;;